createdAt,value
2018-07-26T19:05:09.985Z,54.30
2018-07-26T19:10:09.228Z,54.30
2018-07-26T19:12:38.668Z,54.70
2018-07-26T19:15:09.852Z,55.00
2018-07-26T19:17:38.579Z,54.80
2018-07-26T19:20:08.654Z,55.20
2018-07-26T19:25:06.283Z,55.50
2018-07-26T19:27:34.968Z,55.70
2018-07-26T19:30:03.547Z,56.00
2018-07-26T19:32:31.973Z,56.50
2018-07-26T19:37:28.906Z,56.70
2018-07-26T19:39:57.373Z,56.70
2018-07-26T19:42:26.087Z,57.40
2018-07-26T19:44:54.486Z,57.40
2018-07-26T19:47:23.161Z,57.70
2018-07-26T19:49:51.712Z,57.80
2018-07-26T19:52:20.309Z,58.00
2018-07-26T19:54:48.903Z,58.50
2018-07-26T19:57:17.334Z,58.30
2018-07-26T19:59:45.779Z,58.30
2018-07-26T20:02:15.116Z,58.80
2018-07-26T20:04:43.575Z,58.90
2018-07-26T20:07:12.029Z,59.30
2018-07-26T20:09:40.489Z,59.20
2018-07-26T20:12:08.948Z,59.40
2018-07-26T20:14:37.343Z,59.80
2018-07-26T20:17:06.160Z,60.00
2018-07-26T20:19:34.660Z,60.00
2018-07-26T20:22:03.128Z,60.30
2018-07-26T20:24:31.519Z,60.80
2018-07-26T20:26:59.952Z,61.50
2018-07-26T20:29:28.396Z,62.20
2018-07-26T20:34:25.038Z,63.60
2018-07-26T20:36:53.565Z,63.80
2018-07-26T20:39:21.988Z,65.40
2018-07-26T20:41:50.451Z,66.50
2018-07-26T20:44:18.924Z,67.30
2018-07-26T20:46:47.343Z,68.10
2018-07-26T20:49:15.755Z,68.70
2018-07-26T20:51:44.185Z,68.90
2018-07-26T20:54:12.596Z,69.00
2018-07-26T20:56:41.052Z,69.30
2018-07-26T20:59:09.623Z,70.10
2018-07-26T21:01:38.088Z,70.50
2018-07-26T21:04:06.723Z,70.80
2018-07-26T21:06:35.185Z,70.60
2018-07-26T21:09:05.083Z,71.70
2018-07-26T21:11:33.568Z,72.20
2018-07-26T21:14:01.964Z,72.80
2018-07-26T21:16:30.451Z,74.00
2018-07-26T21:18:59.293Z,75.20
2018-07-26T21:21:27.856Z,76.30
2018-07-26T21:23:56.244Z,76.80
2018-07-26T21:26:24.682Z,77.20
2018-07-26T21:28:53.088Z,77.40
2018-07-26T21:31:21.524Z,77.70
2018-07-26T21:33:49.978Z,77.70
2018-07-26T21:36:18.401Z,78.70
2018-07-26T21:38:46.799Z,79.50
2018-07-26T21:41:15.204Z,80.90
2018-07-26T21:43:43.639Z,81.60
2018-07-26T21:46:12.319Z,81.50
2018-07-26T21:48:40.813Z,81.30
2018-07-26T21:51:09.267Z,81.60
2018-07-26T21:53:37.971Z,81.70
2018-07-26T21:56:06.967Z,82.10
2018-07-26T21:58:35.375Z,82.00
2018-07-26T22:01:03.901Z,82.20
2018-07-26T22:03:32.463Z,82.50
2018-07-26T22:06:01.046Z,82.50
2018-07-26T22:08:29.548Z,82.40
2018-07-26T22:10:58.053Z,82.50
2018-07-26T22:13:26.538Z,81.80
2018-07-26T22:15:55.003Z,80.50
2018-07-26T22:18:23.819Z,80.50
2018-07-26T22:20:52.488Z,79.50
2018-07-26T22:23:22.060Z,78.50
2018-07-26T22:25:51.215Z,78.40
2018-07-26T22:28:20.086Z,78.10
2018-07-26T22:30:48.911Z,79.90
2018-07-26T22:33:17.403Z,78.90
2018-07-26T22:35:45.831Z,80.50
2018-07-26T22:38:14.304Z,79.70
2018-07-26T22:40:42.783Z,79.50
2018-07-26T22:43:11.219Z,79.70
2018-07-26T22:45:39.744Z,77.50
2018-07-26T22:48:08.374Z,78.90
2018-07-26T22:50:36.775Z,78.70
2018-07-26T22:53:05.312Z,77.50
2018-07-26T22:55:33.753Z,77.20
2018-07-26T22:58:02.292Z,78.30
2018-07-26T23:00:30.881Z,78.00
2018-07-26T23:02:59.317Z,77.60
2018-07-26T23:05:27.843Z,78.00
2018-07-26T23:07:56.282Z,78.10
2018-07-26T23:10:24.722Z,78.00
2018-07-26T23:12:53.131Z,77.50
2018-07-26T23:15:21.632Z,76.70
2018-07-26T23:17:50.032Z,76.20
2018-07-26T23:20:18.443Z,76.10
2018-07-26T23:22:51.213Z,76.20
2018-07-26T23:25:20.083Z,75.50
2018-07-26T23:27:48.470Z,76.70
2018-07-26T23:30:16.875Z,76.40
2018-07-26T23:32:45.321Z,75.80
2018-07-26T23:35:13.854Z,77.50
2018-07-26T23:37:42.322Z,77.00
2018-07-26T23:40:11.512Z,76.20
2018-07-26T23:42:40.645Z,76.60
2018-07-26T23:45:09.131Z,77.20
2018-07-26T23:47:37.539Z,75.00
2018-07-26T23:50:06.240Z,75.90
2018-07-26T23:52:34.717Z,78.20
2018-07-26T23:55:03.215Z,78.70
2018-07-26T23:57:31.624Z,78.90
